sensor_id;sensor_type;location;lat;lon;timestamp;P1;durP1;ratioP1;P2;durP2;ratioP2
43744;SDS011;29359;53.048;8.732;2022-09-09T00:00:49;5.97;;;5.45;;
43744;SDS011;29359;53.048;8.732;2022-09-09T00:09:46;6.78;;;6.10;;
43744;SDS011;29359;53.048;8.732;2022-09-09T00:14:00;6.63;;;6.03;;
43744;SDS011;29359;53.048;8.732;2022-09-09T00:21:19;7.93;;;5.82;;
43744;SDS011;29359;53.048;8.732;2022-09-09T00:23:27;16.23;;;9.70;;
43744;SDS011;29359;53.048;8.732;2022-09-09T00:25:37;11.40;;;10.20;;
43744;SDS011;29359;53.048;8.732;2022-09-09T00:27:52;8.65;;;7.90;;
43744;SDS011;29359;53.048;8.732;2022-09-09T00:29:56;9.18;;;7.40;;
43744;SDS011;29359;53.048;8.732;2022-09-09T00:32:07;8.70;;;6.80;;
43744;SDS011;29359;53.048;8.732;2022-09-09T00:34:21;8.35;;;7.28;;
43744;SDS011;29359;53.048;8.732;2022-09-09T00:36:24;8.40;;;7.60;;
43744;SDS011;29359;53.048;8.732;2022-09-09T00:38:40;7.75;;;7.00;;
43744;SDS011;29359;53.048;8.732;2022-09-09T00:40:50;8.63;;;7.55;;
43744;SDS011;29359;53.048;8.732;2022-09-09T00:42:59;7.85;;;7.10;;
43744;SDS011;29359;53.048;8.732;2022-09-09T00:49:50;9.18;;;7.80;;
43744;SDS011;29359;53.048;8.732;2022-09-09T00:52:08;13.27;;;8.38;;
43744;SDS011;29359;53.048;8.732;2022-09-09T00:54:38;13.27;;;9.48;;
43744;SDS011;29359;53.048;8.732;2022-09-09T00:59:51;10.30;;;8.98;;
43744;SDS011;29359;53.048;8.732;2022-09-09T01:01:45;11.68;;;10.13;;
43744;SDS011;29359;53.048;8.732;2022-09-09T01:03:53;11.15;;;9.45;;
43744;SDS011;29359;53.048;8.732;2022-09-09T01:08:10;17.48;;;12.27;;
43744;SDS011;29359;53.048;8.732;2022-09-09T01:10:34;15.48;;;12.38;;
43744;SDS011;29359;53.048;8.732;2022-09-09T01:12:42;14.55;;;13.07;;
43744;SDS011;29359;53.048;8.732;2022-09-09T01:14:48;14.70;;;11.85;;
43744;SDS011;29359;53.048;8.732;2022-09-09T01:16:54;12.75;;;11.43;;
43744;SDS011;29359;53.048;8.732;2022-09-09T01:19:01;14.50;;;11.90;;
43744;SDS011;29359;53.048;8.732;2022-09-09T01:26:15;12.63;;;11.02;;
43744;SDS011;29359;53.048;8.732;2022-09-09T01:28:26;19.63;;;11.18;;
43744;SDS011;29359;53.048;8.732;2022-09-09T01:30:29;13.65;;;11.90;;
43744;SDS011;29359;53.048;8.732;2022-09-09T01:34:41;14.63;;;12.68;;
43744;SDS011;29359;53.048;8.732;2022-09-09T01:39:17;13.55;;;11.75;;
43744;SDS011;29359;53.048;8.732;2022-09-09T01:41:18;14.38;;;11.43;;
43744;SDS011;29359;53.048;8.732;2022-09-09T01:43:21;14.32;;;12.15;;
43744;SDS011;29359;53.048;8.732;2022-09-09T01:45:24;13.93;;;11.98;;
43744;SDS011;29359;53.048;8.732;2022-09-09T01:47:26;13.68;;;12.38;;
43744;SDS011;29359;53.048;8.732;2022-09-09T01:49:28;13.82;;;12.35;;
43744;SDS011;29359;53.048;8.732;2022-09-09T01:51:29;14.75;;;11.85;;
43744;SDS011;29359;53.048;8.732;2022-09-09T01:53:31;13.43;;;12.02;;
43744;SDS011;29359;53.048;8.732;2022-09-09T01:55:38;14.95;;;12.43;;
43744;SDS011;29359;53.048;8.732;2022-09-09T02:00:19;12.90;;;11.55;;
43744;SDS011;29359;53.048;8.732;2022-09-09T02:08:23;11.63;;;10.43;;
43744;SDS011;29359;53.048;8.732;2022-09-09T02:10:15;12.30;;;10.70;;
43744;SDS011;29359;53.048;8.732;2022-09-09T02:12:18;12.23;;;10.95;;
43744;SDS011;29359;53.048;8.732;2022-09-09T02:14:23;11.75;;;10.13;;
43744;SDS011;29359;53.048;8.732;2022-09-09T02:16:37;11.38;;;10.30;;
43744;SDS011;29359;53.048;8.732;2022-09-09T02:21:03;14.82;;;10.20;;
43744;SDS011;29359;53.048;8.732;2022-09-09T02:23:07;11.88;;;10.05;;
43744;SDS011;29359;53.048;8.732;2022-09-09T02:25:12;16.33;;;9.93;;
43744;SDS011;29359;53.048;8.732;2022-09-09T02:27:16;10.65;;;9.55;;
43744;SDS011;29359;53.048;8.732;2022-09-09T02:29:24;14.77;;;9.45;;
43744;SDS011;29359;53.048;8.732;2022-09-09T02:31:29;11.63;;;10.18;;
43744;SDS011;29359;53.048;8.732;2022-09-09T02:33:35;14.50;;;9.88;;
43744;SDS011;29359;53.048;8.732;2022-09-09T02:35:41;10.05;;;9.10;;
43744;SDS011;29359;53.048;8.732;2022-09-09T02:37:44;10.43;;;8.85;;
43744;SDS011;29359;53.048;8.732;2022-09-09T02:39:49;10.27;;;9.20;;
43744;SDS011;29359;53.048;8.732;2022-09-09T02:41:51;11.27;;;9.05;;
43744;SDS011;29359;53.048;8.732;2022-09-09T02:43:52;9.98;;;9.05;;
43744;SDS011;29359;53.048;8.732;2022-09-09T02:48:38;8.88;;;7.97;;
43744;SDS011;29359;53.048;8.732;2022-09-09T02:55:07;11.35;;;9.18;;
43744;SDS011;29359;53.048;8.732;2022-09-09T02:57:32;13.88;;;8.65;;
43744;SDS011;29359;53.048;8.732;2022-09-09T02:59:35;11.38;;;8.93;;
43744;SDS011;29359;53.048;8.732;2022-09-09T03:01:37;9.65;;;8.43;;
43744;SDS011;29359;53.048;8.732;2022-09-09T03:03:41;9.93;;;8.90;;
43744;SDS011;29359;53.048;8.732;2022-09-09T03:05:43;10.27;;;9.27;;
43744;SDS011;29359;53.048;8.732;2022-09-09T03:07:45;9.60;;;8.70;;
43744;SDS011;29359;53.048;8.732;2022-09-09T03:09:47;9.15;;;8.35;;
43744;SDS011;29359;53.048;8.732;2022-09-09T03:11:49;11.85;;;8.80;;
43744;SDS011;29359;53.048;8.732;2022-09-09T03:13:51;9.73;;;8.27;;
43744;SDS011;29359;53.048;8.732;2022-09-09T03:15:52;9.63;;;8.63;;
43744;SDS011;29359;53.048;8.732;2022-09-09T03:17:54;9.77;;;8.20;;
43744;SDS011;29359;53.048;8.732;2022-09-09T03:19:56;12.48;;;8.10;;
43744;SDS011;29359;53.048;8.732;2022-09-09T03:21:59;10.57;;;7.82;;
43744;SDS011;29359;53.048;8.732;2022-09-09T03:24:01;11.45;;;7.50;;
43744;SDS011;29359;53.048;8.732;2022-09-09T03:26:04;9.10;;;8.35;;
43744;SDS011;29359;53.048;8.732;2022-09-09T03:28:05;15.30;;;8.05;;
43744;SDS011;29359;53.048;8.732;2022-09-09T03:30:07;9.43;;;8.35;;
43744;SDS011;29359;53.048;8.732;2022-09-09T03:32:09;9.70;;;8.20;;
43744;SDS011;29359;53.048;8.732;2022-09-09T03:34:11;7.85;;;7.03;;
43744;SDS011;29359;53.048;8.732;2022-09-09T03:36:14;8.32;;;7.53;;
43744;SDS011;29359;53.048;8.732;2022-09-09T03:38:16;7.93;;;7.32;;
43744;SDS011;29359;53.048;8.732;2022-09-09T03:40:18;10.07;;;7.72;;
43744;SDS011;29359;53.048;8.732;2022-09-09T03:42:21;9.90;;;6.75;;
43744;SDS011;29359;53.048;8.732;2022-09-09T03:44:22;7.80;;;6.47;;
43744;SDS011;29359;53.048;8.732;2022-09-09T03:46:24;8.07;;;7.20;;
43744;SDS011;29359;53.048;8.732;2022-09-09T03:48:27;10.88;;;6.97;;
43744;SDS011;29359;53.048;8.732;2022-09-09T03:50:29;10.05;;;6.88;;
43744;SDS011;29359;53.048;8.732;2022-09-09T03:52:31;7.30;;;6.63;;
43744;SDS011;29359;53.048;8.732;2022-09-09T03:54:32;7.65;;;6.95;;
43744;SDS011;29359;53.048;8.732;2022-09-09T03:56:34;6.78;;;6.13;;
43744;SDS011;29359;53.048;8.732;2022-09-09T03:58:36;6.90;;;6.28;;
43744;SDS011;29359;53.048;8.732;2022-09-09T04:00:39;11.10;;;7.05;;
43744;SDS011;29359;53.048;8.732;2022-09-09T04:02:43;10.23;;;6.75;;
43744;SDS011;29359;53.048;8.732;2022-09-09T04:04:44;8.45;;;6.47;;
43744;SDS011;29359;53.048;8.732;2022-09-09T04:06:46;9.73;;;6.47;;
43744;SDS011;29359;53.048;8.732;2022-09-09T04:08:49;7.40;;;6.13;;
43744;SDS011;29359;53.048;8.732;2022-09-09T04:10:51;6.90;;;6.22;;
43744;SDS011;29359;53.048;8.732;2022-09-09T04:12:53;12.27;;;6.35;;
43744;SDS011;29359;53.048;8.732;2022-09-09T04:14:55;8.02;;;6.35;;
43744;SDS011;29359;53.048;8.732;2022-09-09T04:16:56;10.50;;;6.55;;
43744;SDS011;29359;53.048;8.732;2022-09-09T04:18:59;6.97;;;5.78;;
43744;SDS011;29359;53.048;8.732;2022-09-09T04:21:01;6.93;;;6.05;;
43744;SDS011;29359;53.048;8.732;2022-09-09T04:23:03;7.90;;;6.47;;
43744;SDS011;29359;53.048;8.732;2022-09-09T04:25:05;10.88;;;6.00;;
43744;SDS011;29359;53.048;8.732;2022-09-09T04:27:07;9.48;;;6.03;;
43744;SDS011;29359;53.048;8.732;2022-09-09T04:29:08;13.75;;;6.80;;
43744;SDS011;29359;53.048;8.732;2022-09-09T04:31:14;8.43;;;6.25;;
43744;SDS011;29359;53.048;8.732;2022-09-09T04:33:19;8.85;;;6.55;;
43744;SDS011;29359;53.048;8.732;2022-09-09T04:35:20;10.32;;;6.43;;
43744;SDS011;29359;53.048;8.732;2022-09-09T04:37:22;8.45;;;5.72;;
43744;SDS011;29359;53.048;8.732;2022-09-09T04:39:23;10.18;;;6.13;;
43744;SDS011;29359;53.048;8.732;2022-09-09T04:41:25;7.20;;;6.07;;
43744;SDS011;29359;53.048;8.732;2022-09-09T04:43:27;9.55;;;5.40;;
43744;SDS011;29359;53.048;8.732;2022-09-09T04:45:28;7.97;;;5.68;;
43744;SDS011;29359;53.048;8.732;2022-09-09T04:47:30;9.23;;;6.07;;
43744;SDS011;29359;53.048;8.732;2022-09-09T04:49:31;8.63;;;5.30;;
43744;SDS011;29359;53.048;8.732;2022-09-09T04:51:33;7.55;;;5.45;;
43744;SDS011;29359;53.048;8.732;2022-09-09T04:53:34;13.10;;;5.30;;
43744;SDS011;29359;53.048;8.732;2022-09-09T04:55:36;7.13;;;5.53;;
43744;SDS011;29359;53.048;8.732;2022-09-09T04:57:39;10.15;;;5.20;;
43744;SDS011;29359;53.048;8.732;2022-09-09T04:59:41;5.32;;;4.93;;
43744;SDS011;29359;53.048;8.732;2022-09-09T05:01:42;9.45;;;5.10;;
43744;SDS011;29359;53.048;8.732;2022-09-09T05:03:44;7.75;;;4.85;;
43744;SDS011;29359;53.048;8.732;2022-09-09T05:05:48;5.78;;;5.10;;
43744;SDS011;29359;53.048;8.732;2022-09-09T05:07:50;6.32;;;5.25;;
43744;SDS011;29359;53.048;8.732;2022-09-09T05:09:51;13.90;;;5.25;;
43744;SDS011;29359;53.048;8.732;2022-09-09T05:11:53;10.05;;;5.07;;
43744;SDS011;29359;53.048;8.732;2022-09-09T05:13:55;11.70;;;4.60;;
43744;SDS011;29359;53.048;8.732;2022-09-09T05:15:57;5.05;;;4.43;;
43744;SDS011;29359;53.048;8.732;2022-09-09T05:17:59;8.63;;;4.55;;
43744;SDS011;29359;53.048;8.732;2022-09-09T05:20:02;9.18;;;4.60;;
43744;SDS011;29359;53.048;8.732;2022-09-09T05:22:10;5.35;;;4.63;;
43744;SDS011;29359;53.048;8.732;2022-09-09T05:24:13;8.52;;;4.78;;
43744;SDS011;29359;53.048;8.732;2022-09-09T05:26:15;9.27;;;4.80;;
43744;SDS011;29359;53.048;8.732;2022-09-09T05:28:21;10.15;;;4.53;;
43744;SDS011;29359;53.048;8.732;2022-09-09T05:30:22;9.35;;;4.78;;
43744;SDS011;29359;53.048;8.732;2022-09-09T05:32:29;4.97;;;4.57;;
43744;SDS011;29359;53.048;8.732;2022-09-09T05:34:33;7.35;;;4.63;;
43744;SDS011;29359;53.048;8.732;2022-09-09T05:36:34;5.30;;;4.28;;
43744;SDS011;29359;53.048;8.732;2022-09-09T05:38:36;6.00;;;4.70;;
43744;SDS011;29359;53.048;8.732;2022-09-09T05:40:39;9.80;;;4.20;;
43744;SDS011;29359;53.048;8.732;2022-09-09T05:42:40;10.55;;;4.47;;
43744;SDS011;29359;53.048;8.732;2022-09-09T05:44:42;4.90;;;4.43;;
43744;SDS011;29359;53.048;8.732;2022-09-09T05:46:44;11.30;;;4.60;;
43744;SDS011;29359;53.048;8.732;2022-09-09T05:48:46;7.50;;;4.60;;
43744;SDS011;29359;53.048;8.732;2022-09-09T05:50:55;7.40;;;3.90;;
43744;SDS011;29359;53.048;8.732;2022-09-09T05:52:56;7.40;;;5.25;;
43744;SDS011;29359;53.048;8.732;2022-09-09T05:54:57;7.65;;;5.28;;
43744;SDS011;29359;53.048;8.732;2022-09-09T05:57:00;8.50;;;4.65;;
43744;SDS011;29359;53.048;8.732;2022-09-09T05:59:01;6.55;;;4.93;;
43744;SDS011;29359;53.048;8.732;2022-09-09T06:01:07;14.82;;;5.03;;
43744;SDS011;29359;53.048;8.732;2022-09-09T06:03:11;5.97;;;4.38;;
43744;SDS011;29359;53.048;8.732;2022-09-09T06:05:13;15.23;;;5.15;;
43744;SDS011;29359;53.048;8.732;2022-09-09T06:07:16;9.68;;;5.05;;
43744;SDS011;29359;53.048;8.732;2022-09-09T06:09:17;8.40;;;5.40;;
43744;SDS011;29359;53.048;8.732;2022-09-09T06:11:22;6.38;;;4.97;;
43744;SDS011;29359;53.048;8.732;2022-09-09T06:13:27;9.65;;;4.95;;
43744;SDS011;29359;53.048;8.732;2022-09-09T06:15:28;9.35;;;4.80;;
43744;SDS011;29359;53.048;8.732;2022-09-09T06:17:31;8.57;;;4.78;;
43744;SDS011;29359;53.048;8.732;2022-09-09T06:19:33;7.30;;;4.75;;
43744;SDS011;29359;53.048;8.732;2022-09-09T06:21:35;10.57;;;5.32;;
43744;SDS011;29359;53.048;8.732;2022-09-09T06:23:41;11.98;;;4.63;;
43744;SDS011;29359;53.048;8.732;2022-09-09T06:25:43;21.20;;;4.93;;
43744;SDS011;29359;53.048;8.732;2022-09-09T06:27:48;7.05;;;4.55;;
43744;SDS011;29359;53.048;8.732;2022-09-09T06:29:50;7.00;;;4.40;;
43744;SDS011;29359;53.048;8.732;2022-09-09T06:31:51;8.38;;;4.40;;
43744;SDS011;29359;53.048;8.732;2022-09-09T06:33:53;6.70;;;4.65;;
43744;SDS011;29359;53.048;8.732;2022-09-09T06:35:56;4.30;;;3.90;;
43744;SDS011;29359;53.048;8.732;2022-09-09T06:37:58;5.57;;;4.25;;
43744;SDS011;29359;53.048;8.732;2022-09-09T06:39:59;9.77;;;4.55;;
43744;SDS011;29359;53.048;8.732;2022-09-09T06:42:01;5.78;;;4.35;;
43744;SDS011;29359;53.048;8.732;2022-09-09T06:44:02;6.57;;;4.15;;
43744;SDS011;29359;53.048;8.732;2022-09-09T06:48:09;4.90;;;4.30;;
43744;SDS011;29359;53.048;8.732;2022-09-09T06:50:10;7.40;;;4.90;;
43744;SDS011;29359;53.048;8.732;2022-09-09T06:52:12;5.60;;;4.80;;
43744;SDS011;29359;53.048;8.732;2022-09-09T06:54:14;6.38;;;4.53;;
43744;SDS011;29359;53.048;8.732;2022-09-09T06:58:29;10.85;;;5.53;;
43744;SDS011;29359;53.048;8.732;2022-09-09T07:00:31;8.52;;;4.70;;
43744;SDS011;29359;53.048;8.732;2022-09-09T07:02:32;8.32;;;5.32;;
43744;SDS011;29359;53.048;8.732;2022-09-09T07:04:39;5.90;;;4.80;;
43744;SDS011;29359;53.048;8.732;2022-09-09T07:06:42;9.38;;;5.00;;
43744;SDS011;29359;53.048;8.732;2022-09-09T07:08:49;6.97;;;4.60;;
43744;SDS011;29359;53.048;8.732;2022-09-09T07:11:06;9.20;;;5.07;;
43744;SDS011;29359;53.048;8.732;2022-09-09T07:13:13;6.85;;;5.30;;
43744;SDS011;29359;53.048;8.732;2022-09-09T07:15:16;7.45;;;5.47;;
43744;SDS011;29359;53.048;8.732;2022-09-09T07:17:19;6.13;;;4.38;;
43744;SDS011;29359;53.048;8.732;2022-09-09T07:19:21;11.25;;;4.70;;
43744;SDS011;29359;53.048;8.732;2022-09-09T07:21:23;13.90;;;5.25;;
43744;SDS011;29359;53.048;8.732;2022-09-09T07:23:25;8.25;;;4.88;;
43744;SDS011;29359;53.048;8.732;2022-09-09T07:25:27;9.77;;;5.18;;
43744;SDS011;29359;53.048;8.732;2022-09-09T07:27:30;8.98;;;4.82;;
43744;SDS011;29359;53.048;8.732;2022-09-09T07:29:32;5.45;;;4.13;;
43744;SDS011;29359;53.048;8.732;2022-09-09T07:31:35;6.43;;;4.07;;
43744;SDS011;29359;53.048;8.732;2022-09-09T07:33:38;6.40;;;4.18;;
43744;SDS011;29359;53.048;8.732;2022-09-09T07:35:39;6.72;;;4.70;;
43744;SDS011;29359;53.048;8.732;2022-09-09T07:37:41;6.28;;;4.38;;
43744;SDS011;29359;53.048;8.732;2022-09-09T07:39:47;5.55;;;3.78;;
43744;SDS011;29359;53.048;8.732;2022-09-09T07:41:49;8.20;;;4.75;;
43744;SDS011;29359;53.048;8.732;2022-09-09T07:43:52;12.13;;;4.70;;
43744;SDS011;29359;53.048;8.732;2022-09-09T07:45:57;12.50;;;3.67;;
43744;SDS011;29359;53.048;8.732;2022-09-09T07:48:00;10.80;;;4.32;;
43744;SDS011;29359;53.048;8.732;2022-09-09T07:50:01;9.63;;;3.97;;
43744;SDS011;29359;53.048;8.732;2022-09-09T07:52:03;5.88;;;3.80;;
43744;SDS011;29359;53.048;8.732;2022-09-09T07:54:06;5.95;;;4.10;;
43744;SDS011;29359;53.048;8.732;2022-09-09T07:56:11;5.93;;;3.95;;
43744;SDS011;29359;53.048;8.732;2022-09-09T07:58:15;7.30;;;3.80;;
43744;SDS011;29359;53.048;8.732;2022-09-09T08:00:16;8.38;;;4.05;;
43744;SDS011;29359;53.048;8.732;2022-09-09T08:02:20;7.22;;;3.67;;
43744;SDS011;29359;53.048;8.732;2022-09-09T08:04:21;7.07;;;3.67;;
43744;SDS011;29359;53.048;8.732;2022-09-09T08:06:25;5.68;;;3.40;;
43744;SDS011;29359;53.048;8.732;2022-09-09T08:08:28;6.75;;;3.15;;
43744;SDS011;29359;53.048;8.732;2022-09-09T08:10:31;3.92;;;2.60;;
43744;SDS011;29359;53.048;8.732;2022-09-09T08:12:32;11.10;;;3.35;;
43744;SDS011;29359;53.048;8.732;2022-09-09T08:14:36;5.80;;;3.00;;
43744;SDS011;29359;53.048;8.732;2022-09-09T08:16:42;5.13;;;2.97;;
43744;SDS011;29359;53.048;8.732;2022-09-09T08:18:46;6.88;;;2.97;;
43744;SDS011;29359;53.048;8.732;2022-09-09T08:20:48;5.53;;;3.03;;
43744;SDS011;29359;53.048;8.732;2022-09-09T08:22:50;3.83;;;2.80;;
43744;SDS011;29359;53.048;8.732;2022-09-09T08:24:51;6.47;;;2.80;;
43744;SDS011;29359;53.048;8.732;2022-09-09T08:26:53;7.38;;;2.38;;
43744;SDS011;29359;53.048;8.732;2022-09-09T08:28:55;3.45;;;2.50;;
43744;SDS011;29359;53.048;8.732;2022-09-09T08:31:07;2.40;;;2.10;;
43744;SDS011;29359;53.048;8.732;2022-09-09T08:33:08;7.05;;;2.58;;
43744;SDS011;29359;53.048;8.732;2022-09-09T08:35:10;4.32;;;2.50;;
43744;SDS011;29359;53.048;8.732;2022-09-09T08:37:12;4.10;;;2.75;;
43744;SDS011;29359;53.048;8.732;2022-09-09T08:39:16;5.40;;;2.85;;
43744;SDS011;29359;53.048;8.732;2022-09-09T08:43:50;4.03;;;2.20;;
43744;SDS011;29359;53.048;8.732;2022-09-09T08:46:07;8.52;;;2.55;;
43744;SDS011;29359;53.048;8.732;2022-09-09T08:48:58;6.60;;;2.00;;
43744;SDS011;29359;53.048;8.732;2022-09-09T08:51:02;8.63;;;2.33;;
43744;SDS011;29359;53.048;8.732;2022-09-09T08:53:17;5.03;;;1.85;;
43744;SDS011;29359;53.048;8.732;2022-09-09T08:55:44;9.43;;;2.70;;
43744;SDS011;29359;53.048;8.732;2022-09-09T08:57:46;4.10;;;2.15;;
43744;SDS011;29359;53.048;8.732;2022-09-09T08:59:49;8.90;;;2.42;;
43744;SDS011;29359;53.048;8.732;2022-09-09T09:02:08;4.38;;;1.80;;
43744;SDS011;29359;53.048;8.732;2022-09-09T09:11:39;1.92;;;1.30;;
43744;SDS011;29359;53.048;8.732;2022-09-09T09:16:48;5.20;;;1.60;;
43744;SDS011;29359;53.048;8.732;2022-09-09T09:18:55;3.88;;;1.50;;
43744;SDS011;29359;53.048;8.732;2022-09-09T09:23:57;5.43;;;1.50;;
43744;SDS011;29359;53.048;8.732;2022-09-09T09:26:00;5.75;;;1.70;;
43744;SDS011;29359;53.048;8.732;2022-09-09T09:28:13;1.65;;;1.35;;
43744;SDS011;29359;53.048;8.732;2022-09-09T09:30:24;5.43;;;1.63;;
43744;SDS011;29359;53.048;8.732;2022-09-09T09:32:31;5.35;;;1.30;;
43744;SDS011;29359;53.048;8.732;2022-09-09T09:34:35;4.13;;;1.30;;
43744;SDS011;29359;53.048;8.732;2022-09-09T09:36:44;4.45;;;1.40;;
43744;SDS011;29359;53.048;8.732;2022-09-09T09:38:53;8.70;;;1.55;;
43744;SDS011;29359;53.048;8.732;2022-09-09T09:41:17;6.32;;;1.73;;
43744;SDS011;29359;53.048;8.732;2022-09-09T09:43:35;3.90;;;1.30;;
43744;SDS011;29359;53.048;8.732;2022-09-09T09:45:42;3.05;;;1.30;;
43744;SDS011;29359;53.048;8.732;2022-09-09T09:48:11;18.58;;;1.35;;
43744;SDS011;29359;53.048;8.732;2022-09-09T09:50:18;4.45;;;1.25;;
43744;SDS011;29359;53.048;8.732;2022-09-09T09:52:25;3.50;;;1.30;;
43744;SDS011;29359;53.048;8.732;2022-09-09T09:54:49;7.65;;;1.30;;
43744;SDS011;29359;53.048;8.732;2022-09-09T09:56:49;3.60;;;1.52;;
43744;SDS011;29359;53.048;8.732;2022-09-09T09:58:51;4.82;;;1.10;;
43744;SDS011;29359;53.048;8.732;2022-09-09T10:00:54;10.45;;;1.33;;
43744;SDS011;29359;53.048;8.732;2022-09-09T10:02:55;2.15;;;1.20;;
43744;SDS011;29359;53.048;8.732;2022-09-09T10:05:04;6.60;;;1.30;;
43744;SDS011;29359;53.048;8.732;2022-09-09T10:07:17;4.53;;;1.75;;
43744;SDS011;29359;53.048;8.732;2022-09-09T10:09:24;5.40;;;1.42;;
43744;SDS011;29359;53.048;8.732;2022-09-09T10:11:38;4.65;;;1.65;;
43744;SDS011;29359;53.048;8.732;2022-09-09T10:14:14;5.13;;;1.73;;
43744;SDS011;29359;53.048;8.732;2022-09-09T10:18:37;7.68;;;1.42;;
43744;SDS011;29359;53.048;8.732;2022-09-09T10:21:03;7.05;;;1.48;;
43744;SDS011;29359;53.048;8.732;2022-09-09T10:25:38;5.00;;;1.67;;
43744;SDS011;29359;53.048;8.732;2022-09-09T10:35:40;7.03;;;1.88;;
43744;SDS011;29359;53.048;8.732;2022-09-09T10:40:17;5.47;;;1.58;;
43744;SDS011;29359;53.048;8.732;2022-09-09T10:42:28;6.82;;;1.60;;
43744;SDS011;29359;53.048;8.732;2022-09-09T10:52:04;5.70;;;1.50;;
43744;SDS011;29359;53.048;8.732;2022-09-09T10:56:14;4.50;;;1.70;;
43744;SDS011;29359;53.048;8.732;2022-09-09T10:58:20;7.40;;;1.55;;
43744;SDS011;29359;53.048;8.732;2022-09-09T11:00:48;4.70;;;1.45;;
43744;SDS011;29359;53.048;8.732;2022-09-09T11:02:56;3.42;;;1.00;;
43744;SDS011;29359;53.048;8.732;2022-09-09T11:05:14;8.23;;;1.88;;
43744;SDS011;29359;53.048;8.732;2022-09-09T11:07:29;6.50;;;1.90;;
43744;SDS011;29359;53.048;8.732;2022-09-09T11:09:41;2.97;;;1.20;;
43744;SDS011;29359;53.048;8.732;2022-09-09T11:11:53;5.53;;;1.35;;
43744;SDS011;29359;53.048;8.732;2022-09-09T11:13:57;3.08;;;1.17;;
43744;SDS011;29359;53.048;8.732;2022-09-09T11:18:37;5.93;;;1.33;;
43744;SDS011;29359;53.048;8.732;2022-09-09T11:20:42;3.13;;;1.20;;
43744;SDS011;29359;53.048;8.732;2022-09-09T11:22:50;5.10;;;1.55;;
43744;SDS011;29359;53.048;8.732;2022-09-09T11:24:59;8.27;;;1.65;;
43744;SDS011;29359;53.048;8.732;2022-09-09T11:27:14;5.85;;;1.83;;
43744;SDS011;29359;53.048;8.732;2022-09-09T11:32:00;5.55;;;1.48;;
43744;SDS011;29359;53.048;8.732;2022-09-09T11:34:10;3.72;;;1.52;;
43744;SDS011;29359;53.048;8.732;2022-09-09T11:40:55;6.45;;;1.90;;
43744;SDS011;29359;53.048;8.732;2022-09-09T11:43:01;9.63;;;1.92;;
43744;SDS011;29359;53.048;8.732;2022-09-09T11:45:25;3.35;;;1.50;;
43744;SDS011;29359;53.048;8.732;2022-09-09T11:47:30;5.82;;;1.55;;
43744;SDS011;29359;53.048;8.732;2022-09-09T11:51:40;4.10;;;1.92;;
43744;SDS011;29359;53.048;8.732;2022-09-09T11:53:48;3.70;;;1.75;;
43744;SDS011;29359;53.048;8.732;2022-09-09T11:56:00;5.55;;;1.60;;
43744;SDS011;29359;53.048;8.732;2022-09-09T11:58:15;8.95;;;1.73;;
43744;SDS011;29359;53.048;8.732;2022-09-09T12:02:53;4.55;;;1.73;;
43744;SDS011;29359;53.048;8.732;2022-09-09T12:11:29;32.95;;;4.80;;
43744;SDS011;29359;53.048;8.732;2022-09-09T12:13:31;11.88;;;2.08;;
43744;SDS011;29359;53.048;8.732;2022-09-09T12:15:33;9.27;;;1.80;;
43744;SDS011;29359;53.048;8.732;2022-09-09T12:17:43;8.05;;;1.60;;
43744;SDS011;29359;53.048;8.732;2022-09-09T12:19:46;8.43;;;1.80;;
43744;SDS011;29359;53.048;8.732;2022-09-09T12:21:55;5.40;;;1.42;;
43744;SDS011;29359;53.048;8.732;2022-09-09T12:24:27;6.22;;;1.00;;
43744;SDS011;29359;53.048;8.732;2022-09-09T12:27:17;5.75;;;1.27;;
43744;SDS011;29359;53.048;8.732;2022-09-09T12:36:31;6.78;;;1.13;;
43744;SDS011;29359;53.048;8.732;2022-09-09T12:38:35;6.85;;;1.00;;
43744;SDS011;29359;53.048;8.732;2022-09-09T12:40:38;3.63;;;1.23;;
43744;SDS011;29359;53.048;8.732;2022-09-09T12:42:40;4.95;;;1.08;;
43744;SDS011;29359;53.048;8.732;2022-09-09T12:44:50;4.85;;;1.48;;
43744;SDS011;29359;53.048;8.732;2022-09-09T12:47:02;4.15;;;1.38;;
43744;SDS011;29359;53.048;8.732;2022-09-09T12:49:04;4.13;;;1.45;;
43744;SDS011;29359;53.048;8.732;2022-09-09T12:51:16;5.05;;;1.10;;
43744;SDS011;29359;53.048;8.732;2022-09-09T12:53:23;4.25;;;1.20;;
43744;SDS011;29359;53.048;8.732;2022-09-09T12:55:28;4.72;;;1.80;;
43744;SDS011;29359;53.048;8.732;2022-09-09T12:57:33;3.03;;;1.10;;
43744;SDS011;29359;53.048;8.732;2022-09-09T12:59:38;7.85;;;1.67;;
43744;SDS011;29359;53.048;8.732;2022-09-09T13:01:42;5.38;;;1.92;;
43744;SDS011;29359;53.048;8.732;2022-09-09T13:03:44;6.47;;;1.92;;
43744;SDS011;29359;53.048;8.732;2022-09-09T13:05:46;4.63;;;1.88;;
43744;SDS011;29359;53.048;8.732;2022-09-09T13:07:48;5.13;;;2.30;;
43744;SDS011;29359;53.048;8.732;2022-09-09T13:09:51;9.05;;;3.10;;
43744;SDS011;29359;53.048;8.732;2022-09-09T13:11:53;6.75;;;3.80;;
43744;SDS011;29359;53.048;8.732;2022-09-09T13:13:57;5.03;;;3.28;;
43744;SDS011;29359;53.048;8.732;2022-09-09T13:16:01;4.50;;;2.25;;
43744;SDS011;29359;53.048;8.732;2022-09-09T13:18:05;3.97;;;2.35;;
43744;SDS011;29359;53.048;8.732;2022-09-09T13:20:18;5.28;;;2.83;;
43744;SDS011;29359;53.048;8.732;2022-09-09T13:22:43;5.15;;;2.50;;
43744;SDS011;29359;53.048;8.732;2022-09-09T13:24:43;3.83;;;2.65;;
43744;SDS011;29359;53.048;8.732;2022-09-09T13:26:53;5.50;;;2.70;;
43744;SDS011;29359;53.048;8.732;2022-09-09T13:29:17;9.45;;;2.88;;
43744;SDS011;29359;53.048;8.732;2022-09-09T13:31:21;9.18;;;2.40;;
43744;SDS011;29359;53.048;8.732;2022-09-09T13:33:23;8.15;;;2.50;;
43744;SDS011;29359;53.048;8.732;2022-09-09T13:35:31;5.05;;;2.17;;
43744;SDS011;29359;53.048;8.732;2022-09-09T13:39:35;5.78;;;1.83;;
43744;SDS011;29359;53.048;8.732;2022-09-09T13:41:42;6.82;;;1.90;;
43744;SDS011;29359;53.048;8.732;2022-09-09T13:43:49;3.95;;;1.90;;
43744;SDS011;29359;53.048;8.732;2022-09-09T13:45:56;5.95;;;1.77;;
43744;SDS011;29359;53.048;8.732;2022-09-09T13:48:07;5.78;;;1.88;;
43744;SDS011;29359;53.048;8.732;2022-09-09T13:50:24;5.00;;;1.83;;
43744;SDS011;29359;53.048;8.732;2022-09-09T13:52:27;2.30;;;1.65;;
43744;SDS011;29359;53.048;8.732;2022-09-09T13:54:32;3.97;;;1.80;;
43744;SDS011;29359;53.048;8.732;2022-09-09T13:56:33;7.32;;;2.03;;
43744;SDS011;29359;53.048;8.732;2022-09-09T13:58:36;4.95;;;1.80;;
43744;SDS011;29359;53.048;8.732;2022-09-09T14:00:37;5.93;;;2.10;;
43744;SDS011;29359;53.048;8.732;2022-09-09T14:02:39;4.00;;;1.90;;
43744;SDS011;29359;53.048;8.732;2022-09-09T14:04:41;4.43;;;2.38;;
43744;SDS011;29359;53.048;8.732;2022-09-09T14:06:43;10.65;;;2.80;;
43744;SDS011;29359;53.048;8.732;2022-09-09T14:08:44;7.72;;;3.15;;
43744;SDS011;29359;53.048;8.732;2022-09-09T14:10:47;12.05;;;3.45;;
43744;SDS011;29359;53.048;8.732;2022-09-09T14:12:48;6.20;;;3.13;;
43744;SDS011;29359;53.048;8.732;2022-09-09T14:14:50;4.95;;;2.78;;
43744;SDS011;29359;53.048;8.732;2022-09-09T14:16:51;9.30;;;3.17;;
43744;SDS011;29359;53.048;8.732;2022-09-09T14:18:53;6.90;;;3.45;;
43744;SDS011;29359;53.048;8.732;2022-09-09T14:20:57;7.40;;;3.03;;
43744;SDS011;29359;53.048;8.732;2022-09-09T14:22:59;12.95;;;3.13;;
43744;SDS011;29359;53.048;8.732;2022-09-09T14:25:03;10.35;;;3.40;;
43744;SDS011;29359;53.048;8.732;2022-09-09T14:27:07;8.07;;;3.13;;
43744;SDS011;29359;53.048;8.732;2022-09-09T14:29:08;7.10;;;2.65;;
43744;SDS011;29359;53.048;8.732;2022-09-09T14:31:10;7.88;;;2.65;;
43744;SDS011;29359;53.048;8.732;2022-09-09T14:33:12;10.25;;;2.70;;
43744;SDS011;29359;53.048;8.732;2022-09-09T14:35:15;9.70;;;2.60;;
43744;SDS011;29359;53.048;8.732;2022-09-09T14:37:19;6.28;;;2.45;;
43744;SDS011;29359;53.048;8.732;2022-09-09T14:39:21;14.35;;;2.83;;